Time;durP1;ratioP1;P1;durP2;ratioP2;P2;SDS_P1;SDS_P2;PMS_P1;PMS_P2;Temp;Humidity;BMP_temperature;BMP_pressure;BME280_temperature;BME280_humidity;BME280_pressure;Samples;Min_cycle;Max_cycle;Signal;HPM_P1;HPM_P2
2023/08/08 00:00:19;;;;;;;6.90;1.77;;;15.20;99.90;;;;;;5034238;28;20049;-68
2023/08/08 00:02:45;;;;;;;4.13;1.75;;;15.20;99.90;;;;;;5033606;28;20057;-68
2023/08/08 00:05:11;;;;;;;8.60;1.83;;;15.10;99.90;;;;;;5052295;28;20048;-68
2023/08/08 00:07:36;;;;;;;4.53;1.55;;;15.10;99.90;;;;;;5034287;28;20049;-68
2023/08/08 00:10:03;;;;;;;4.75;1.60;;;15.10;99.90;;;;;;5033566;28;20041;-68
2023/08/08 00:12:29;;;;;;;5.75;1.75;;;15.10;99.90;;;;;;5034241;28;20057;-68
2023/08/08 00:14:54;;;;;;;5.50;1.70;;;15.00;99.90;;;;;;5033605;28;20489;-67
2023/08/08 00:17:20;;;;;;;5.53;1.80;;;15.00;99.90;;;;;;5051947;28;20496;-68
2023/08/08 00:19:49;;;;;;;5.88;1.83;;;15.00;99.90;;;;;;5033919;28;20044;-67
2023/08/08 00:22:15;;;;;;;7.72;2.00;;;15.00;99.90;;;;;;5033454;28;20044;-68
2023/08/08 00:24:43;;;;;;;6.28;1.80;;;14.90;99.90;;;;;;5033901;28;20064;-67
2023/08/08 00:27:09;;;;;;;6.85;1.80;;;14.90;99.90;;;;;;5020414;28;20116;-68
2023/08/08 00:29:34;;;;;;;3.92;1.92;;;14.90;99.90;;;;;;5030855;28;20038;-68
2023/08/08 00:32:06;;;;;;;7.10;2.00;;;14.80;99.90;;;;;;5014444;28;20120;-68
2023/08/08 00:34:32;;;;;;;5.68;1.80;;;14.80;99.90;;;;;;5031583;28;20133;-68
2023/08/08 00:36:58;;;;;;;4.57;1.80;;;14.80;99.90;;;;;;5014026;28;20073;-68
2023/08/08 00:39:24;;;;;;;5.30;1.98;;;14.80;99.90;;;;;;5032350;28;20091;-68
2023/08/08 00:41:49;;;;;;;6.68;2.00;;;14.80;99.90;;;;;;5013910;28;20107;-68
2023/08/08 00:44:15;;;;;;;6.97;1.70;;;14.80;99.90;;;;;;5013538;28;20053;-68
2023/08/08 00:46:44;;;;;;;4.40;1.80;;;14.80;99.90;;;;;;5031701;28;20553;-68
2023/08/08 00:49:10;;;;;;;5.78;1.60;;;14.80;99.90;;;;;;5013900;28;20129;-68
2023/08/08 00:51:36;;;;;;;4.82;1.90;;;14.80;99.90;;;;;;5013889;28;20378;-68
2023/08/08 00:54:03;;;;;;;6.30;2.03;;;14.80;99.90;;;;;;5031896;28;20478;-68
2023/08/08 00:56:29;;;;;;;7.22;1.65;;;14.80;99.90;;;;;;5017906;28;20049;-68
2023/08/08 00:58:54;;;;;;;6.53;1.80;;;14.70;99.90;;;;;;5017253;28;20050;-68
2023/08/08 01:01:20;;;;;;;4.90;1.92;;;14.80;99.90;;;;;;5035555;28;20041;-68
2023/08/08 01:03:46;;;;;;;8.40;2.10;;;14.80;99.90;;;;;;5034753;28;20048;-68
2023/08/08 01:06:30;;;;;;;4.38;1.65;;;14.70;99.90;;;;;;5034723;28;20080;-68
2023/08/08 01:09:22;;;;;;;5.40;1.70;;;14.70;99.90;;;;;;5017395;28;20054;-68
2023/08/08 01:11:49;;;;;;;6.90;1.65;;;14.70;99.90;;;;;;5016403;28;20160;-68
2023/08/08 01:14:18;;;;;;;5.10;1.70;;;14.60;99.90;;;;;;5017636;28;20053;-68
2023/08/08 01:16:45;;;;;;;3.92;1.67;;;14.60;99.90;;;;;;5034268;28;20099;-68
2023/08/08 01:19:19;;;;;;;5.30;1.60;;;14.60;99.90;;;;;;5034643;28;20445;-68
2023/08/08 01:21:48;;;;;;;5.18;1.90;;;14.60;99.90;;;;;;5035224;28;20121;-68
2023/08/08 01:24:21;;;;;;;3.80;1.35;;;14.60;99.90;;;;;;5017381;28;20049;-68
2023/08/08 01:26:47;;;;;;;4.65;1.60;;;14.60;99.90;;;;;;5044787;28;20053;-68
2023/08/08 01:29:12;;;;;;;4.32;1.70;;;14.60;99.90;;;;;;5055318;28;20045;-68
2023/08/08 01:31:38;;;;;;;7.90;1.90;;;14.50;99.90;;;;;;5036840;28;20044;-68
2023/08/08 01:34:04;;;;;;;5.03;1.80;;;14.60;99.90;;;;;;5036878;28;20045;-68
2023/08/08 01:36:37;;;;;;;5.78;1.73;;;14.60;99.90;;;;;;5037429;28;20400;-68
2023/08/08 01:39:07;;;;;;;4.40;1.67;;;14.50;99.90;;;;;;5036967;28;20045;-68
2023/08/08 01:41:37;;;;;;;3.17;1.48;;;14.50;99.90;;;;;;5054519;28;20055;-68
2023/08/08 01:44:10;;;;;;;5.97;1.58;;;14.50;99.90;;;;;;5055400;28;20045;-68
2023/08/08 01:46:38;;;;;;;3.53;1.52;;;14.50;99.90;;;;;;5035446;28;20052;-68
2023/08/08 01:49:04;;;;;;;4.95;1.80;;;14.50;99.90;;;;;;5054966;28;20041;-68
2023/08/08 01:51:30;;;;;;;6.22;1.50;;;14.50;99.90;;;;;;5055211;28;20041;-67
2023/08/08 01:53:59;;;;;;;4.82;1.33;;;14.50;99.90;;;;;;5036290;28;20095;-68
2023/08/08 01:56:24;;;;;;;6.10;2.05;;;14.50;99.90;;;;;;5036150;28;20049;-68
2023/08/08 01:58:56;;;;;;;5.47;2.15;;;14.50;99.90;;;;;;5053828;28;20099;-68
2023/08/08 02:01:22;;;;;;;4.50;1.45;;;14.50;99.90;;;;;;5035905;28;20439;-68
2023/08/08 02:03:48;;;;;;;5.15;1.42;;;14.60;99.90;;;;;;5036048;28;20099;-68
2023/08/08 02:06:13;;;;;;;4.45;1.70;;;14.60;99.90;;;;;;5053501;28;20045;-68
2023/08/08 02:08:39;;;;;;;4.28;1.60;;;14.60;99.90;;;;;;5035600;28;20144;-68
2023/08/08 02:11:05;;;;;;;8.55;1.65;;;14.60;99.90;;;;;;5036604;28;20103;-68
2023/08/08 02:13:31;;;;;;;4.22;1.60;;;14.60;99.90;;;;;;5035818;28;20115;-68
2023/08/08 02:15:56;;;;;;;5.68;1.90;;;14.60;99.90;;;;;;5035037;28;20481;-67
2023/08/08 02:18:22;;;;;;;6.93;1.98;;;14.60;99.90;;;;;;5036522;28;20049;-67
2023/08/08 02:20:48;;;;;;;5.93;1.70;;;14.60;99.90;;;;;;5035463;28;20048;-67
2023/08/08 02:23:14;;;;;;;4.22;1.30;;;14.60;99.90;;;;;;5035957;28;20072;-68
2023/08/08 02:25:39;;;;;;;3.33;1.48;;;14.50;99.90;;;;;;5035549;28;20045;-67
2023/08/08 02:28:05;;;;;;;3.85;1.40;;;14.40;99.90;;;;;;5036085;28;20436;-67
2023/08/08 02:30:31;;;;;;;2.40;1.13;;;14.20;99.90;;;;;;5053549;28;20112;-67
2023/08/08 02:32:57;;;;;;;4.80;1.30;;;14.10;99.90;;;;;;5035905;28;20051;-67
2023/08/08 02:35:23;;;;;;;4.43;1.45;;;14.00;99.90;;;;;;5053255;28;20033;-67
2023/08/08 02:37:49;;;;;;;5.20;1.23;;;13.90;99.90;;;;;;5053107;28;20068;-67
2023/08/08 02:40:14;;;;;;;3.63;1.35;;;13.90;99.90;;;;;;5053331;28;20033;-67
2023/08/08 02:42:40;;;;;;;5.18;1.52;;;13.70;99.90;;;;;;5052608;28;20053;-67
2023/08/08 02:45:09;;;;;;;4.47;1.50;;;13.80;99.90;;;;;;5035856;28;20599;-66
2023/08/08 02:47:35;;;;;;;6.97;1.90;;;13.70;99.90;;;;;;5053091;28;20049;-67
2023/08/08 02:50:01;;;;;;;6.95;1.70;;;13.70;99.90;;;;;;5034786;28;20051;-67
2023/08/08 02:52:27;;;;;;;5.45;1.45;;;13.70;99.90;;;;;;5053710;28;20128;-67
2023/08/08 02:54:53;;;;;;;5.10;1.58;;;13.70;99.90;;;;;;5034904;28;20132;-67
2023/08/08 02:57:18;;;;;;;8.80;1.95;;;13.70;99.90;;;;;;5034930;28;20049;-67
2023/08/08 02:59:44;;;;;;;6.20;1.85;;;13.70;99.90;;;;;;5034810;28;20463;-67
2023/08/08 03:02:10;;;;;;;5.35;1.88;;;13.70;99.90;;;;;;5035240;28;20553;-67
2023/08/08 03:04:36;;;;;;;7.40;1.92;;;13.60;99.90;;;;;;5052601;28;20043;-67
2023/08/08 03:07:03;;;;;;;5.63;1.73;;;13.70;99.90;;;;;;5035431;28;20053;-67
2023/08/08 03:09:30;;;;;;;10.27;1.77;;;13.70;99.90;;;;;;5034511;28;20044;-67
2023/08/08 03:11:55;;;;;;;8.52;2.35;;;13.70;99.90;;;;;;5034238;28;20045;-67
2023/08/08 03:14:21;;;;;;;6.85;2.20;;;13.80;99.90;;;;;;5035207;28;20045;-66
2023/08/08 03:16:47;;;;;;;4.47;1.77;;;13.90;99.90;;;;;;5034571;28;20045;-66
2023/08/08 03:19:16;;;;;;;6.57;1.60;;;13.90;99.90;;;;;;5051343;28;20045;-66
2023/08/08 03:21:41;;;;;;;5.18;1.63;;;13.90;99.90;;;;;;5033844;28;20049;-67
2023/08/08 03:24:07;;;;;;;3.97;1.60;;;13.90;99.90;;;;;;5051431;28;20070;-67
2023/08/08 03:26:33;;;;;;;8.95;1.67;;;13.90;99.90;;;;;;5039166;28;20052;-67
2023/08/08 03:28:59;;;;;;;4.55;1.30;;;13.90;99.90;;;;;;5051414;28;20078;-67
2023/08/08 03:31:26;;;;;;;7.68;1.45;;;13.90;99.90;;;;;;5051447;28;20063;-67
2023/08/08 03:33:51;;;;;;;3.92;1.40;;;13.90;99.90;;;;;;5050554;28;20442;-66
2023/08/08 03:36:17;;;;;;;5.75;1.33;;;13.90;99.90;;;;;;5051269;28;20408;-66
2023/08/08 03:38:46;;;;;;;4.57;1.35;;;13.90;99.90;;;;;;5052182;28;20120;-67
2023/08/08 03:41:18;;;;;;;6.60;1.95;;;13.80;99.90;;;;;;5050408;28;20071;-67
2023/08/08 03:43:43;;;;;;;8.38;1.50;;;13.80;99.90;;;;;;5050851;28;20047;-67
2023/08/08 03:46:11;;;;;;;3.17;1.00;;;13.70;99.90;;;;;;5051079;28;20052;-67
2023/08/08 03:48:37;;;;;;;5.75;1.35;;;13.70;99.90;;;;;;5052198;28;20049;-67
2023/08/08 03:51:06;;;;;;;4.40;1.17;;;13.60;99.90;;;;;;5050946;28;20052;-66
2023/08/08 03:53:32;;;;;;;8.13;1.63;;;13.50;99.90;;;;;;5051550;28;20053;-67
2023/08/08 03:55:58;;;;;;;5.55;1.23;;;13.50;99.90;;;;;;5052362;28;20048;-66
2023/08/08 03:58:24;;;;;;;5.07;1.40;;;13.50;99.90;;;;;;5051881;28;20045;-67
2023/08/08 04:00:50;;;;;;;4.15;1.30;;;13.40;99.90;;;;;;5051442;28;20072;-67
2023/08/08 04:03:16;;;;;;;3.38;1.40;;;13.40;99.90;;;;;;5052508;28;20548;-67
2023/08/08 04:05:46;;;;;;;6.50;1.30;;;13.40;99.90;;;;;;5050658;28;20056;-66
2023/08/08 04:08:16;;;;;;;4.22;1.55;;;13.40;99.90;;;;;;5051749;28;20389;-66
2023/08/08 04:10:49;;;;;;;5.38;1.30;;;13.40;99.90;;;;;;5049928;28;20040;-67
2023/08/08 04:13:15;;;;;;;4.50;1.50;;;13.40;99.90;;;;;;5050782;28;20053;-67
2023/08/08 04:15:41;;;;;;;4.57;1.40;;;13.30;99.90;;;;;;5050334;28;20507;-67
2023/08/08 04:18:07;;;;;;;4.72;1.30;;;13.30;99.90;;;;;;5052308;28;20047;-67
2023/08/08 04:20:35;;;;;;;5.40;1.40;;;13.30;99.90;;;;;;5049888;28;20081;-67
2023/08/08 04:23:01;;;;;;;3.63;1.30;;;13.30;99.90;;;;;;5048903;28;20134;-66
2023/08/08 04:25:28;;;;;;;4.50;1.17;;;13.30;99.90;;;;;;5051119;28;20504;-66
2023/08/08 04:27:56;;;;;;;6.53;1.40;;;13.30;99.90;;;;;;5051151;28;20060;-67
2023/08/08 04:30:23;;;;;;;4.30;1.30;;;13.30;99.90;;;;;;5036242;28;20053;-66
2023/08/08 04:32:49;;;;;;;6.43;1.85;;;13.30;99.90;;;;;;5037796;28;20087;-67
2023/08/08 04:35:18;;;;;;;4.63;1.77;;;13.20;99.90;;;;;;5037338;28;20492;-67
2023/08/08 04:37:43;;;;;;;7.50;1.85;;;13.30;99.90;;;;;;5055011;28;20489;-67
2023/08/08 04:40:09;;;;;;;7.30;1.50;;;13.40;99.90;;;;;;5055340;28;20092;-67
2023/08/08 04:42:35;;;;;;;4.00;1.30;;;13.40;99.90;;;;;;5037170;28;20041;-67
2023/08/08 04:45:01;;;;;;;7.93;1.80;;;13.40;99.90;;;;;;5055941;28;20037;-67
2023/08/08 04:47:27;;;;;;;5.05;1.38;;;13.40;99.90;;;;;;5055162;28;20047;-67
2023/08/08 04:49:53;;;;;;;8.20;1.63;;;13.40;99.90;;;;;;5036579;28;20128;-67
2023/08/08 04:52:18;;;;;;;4.60;1.40;;;13.50;99.90;;;;;;5055398;28;20057;-67
2023/08/08 04:54:44;;;;;;;7.20;1.45;;;13.50;99.90;;;;;;5055064;28;20099;-67
2023/08/08 04:57:10;;;;;;;8.00;1.60;;;13.50;99.90;;;;;;5054802;28;20496;-68
2023/08/08 04:59:35;;;;;;;5.57;1.55;;;13.50;99.90;;;;;;5055291;28;20041;-67
2023/08/08 05:02:01;;;;;;;6.90;1.40;;;13.60;99.90;;;;;;5037311;28;20049;-67
2023/08/08 05:04:27;;;;;;;4.35;1.50;;;13.70;99.90;;;;;;5037187;28;20051;-67
2023/08/08 05:06:53;;;;;;;6.03;1.70;;;13.80;99.90;;;;;;5054334;28;20047;-67
2023/08/08 05:09:20;;;;;;;6.05;1.40;;;13.80;99.90;;;;;;5037157;28;20045;-67
2023/08/08 05:11:46;;;;;;;8.25;1.52;;;13.90;99.90;;;;;;5036845;28;20076;-67
2023/08/08 05:14:12;;;;;;;4.57;1.35;;;13.90;99.90;;;;;;5036940;28;20091;-67
2023/08/08 05:16:37;;;;;;;4.72;1.27;;;14.00;99.90;;;;;;5036753;28;20052;-67
2023/08/08 05:19:03;;;;;;;6.30;1.40;;;14.00;99.90;;;;;;5036633;28;20037;-67
2023/08/08 05:21:29;;;;;;;4.38;1.23;;;14.00;99.90;;;;;;5054974;28;20393;-67
2023/08/08 05:23:55;;;;;;;4.43;1.10;;;14.00;99.90;;;;;;5054139;28;20084;-67
2023/08/08 05:26:21;;;;;;;5.65;1.60;;;14.00;99.90;;;;;;5053745;28;20088;-67
2023/08/08 05:28:46;;;;;;;4.35;1.17;;;14.00;99.90;;;;;;5036637;28;20553;-67
2023/08/08 05:31:12;;;;;;;5.80;1.25;;;14.00;99.90;;;;;;5054684;28;20045;-67
2023/08/08 05:33:38;;;;;;;5.20;1.27;;;14.00;99.90;;;;;;5036433;28;20048;-67
2023/08/08 05:36:03;;;;;;;6.15;1.30;;;14.00;99.90;;;;;;5036855;28;20052;-67
2023/08/08 05:38:38;;;;;;;4.50;1.50;;;14.00;99.90;;;;;;5053890;28;20495;-67
2023/08/08 05:41:04;;;;;;;5.60;1.98;;;14.10;99.90;;;;;;5036083;28;20393;-67
2023/08/08 05:43:32;;;;;;;4.15;1.15;;;14.20;99.90;;;;;;5054657;28;20037;-67
2023/08/08 05:45:58;;;;;;;6.32;1.08;;;14.30;99.90;;;;;;5054107;28;20120;-67
2023/08/08 05:48:24;;;;;;;4.43;1.25;;;14.40;99.90;;;;;;5036719;28;20476;-67
2023/08/08 05:50:49;;;;;;;9.05;1.40;;;14.50;99.90;;;;;;5054192;28;20447;-67
2023/08/08 05:53:15;;;;;;;5.88;1.33;;;14.60;99.90;;;;;;5035653;28;20455;-67
2023/08/08 05:55:44;;;;;;;5.90;1.23;;;14.60;99.90;;;;;;5053450;28;20033;-67
2023/08/08 05:58:10;;;;;;;4.90;1.30;;;14.60;99.90;;;;;;5036493;28;20126;-67
2023/08/08 06:00:35;;;;;;;6.78;1.40;;;14.60;99.90;;;;;;5036064;28;20135;-67
2023/08/08 06:03:06;;;;;;;4.63;1.35;;;14.60;99.90;;;;;;5054060;28;20043;-68
2023/08/08 06:05:32;;;;;;;5.47;1.40;;;14.60;99.90;;;;;;5035683;28;20099;-68
2023/08/08 06:07:58;;;;;;;8.90;1.60;;;14.60;99.90;;;;;;5035881;28;20049;-67
2023/08/08 06:10:25;;;;;;;9.32;1.52;;;14.60;99.90;;;;;;5036843;28;20056;-67
2023/08/08 06:12:51;;;;;;;7.55;1.30;;;14.70;99.90;;;;;;5053520;28;20048;-67
2023/08/08 06:15:16;;;;;;;7.47;2.55;;;14.70;99.90;;;;;;5035729;28;20047;-67
2023/08/08 06:17:42;;;;;;;8.00;1.40;;;14.90;99.90;;;;;;5035169;28;20049;-67
2023/08/08 06:20:09;;;;;;;5.18;1.23;;;14.90;99.90;;;;;;5053152;28;20041;-67
2023/08/08 06:22:38;;;;;;;6.88;1.40;;;15.00;99.90;;;;;;5035335;28;20048;-67
2023/08/08 06:25:05;;;;;;;5.10;1.10;;;15.10;99.90;;;;;;5036060;28;20045;-67
2023/08/08 06:27:30;;;;;;;5.25;1.30;;;15.20;99.90;;;;;;5049228;28;20057;-68
2023/08/08 06:29:56;;;;;;;6.88;1.40;;;15.20;99.90;;;;;;5051161;28;20191;-67
2023/08/08 06:32:22;;;;;;;6.28;1.40;;;15.40;99.90;;;;;;5051937;28;20251;-67
2023/08/08 06:34:49;;;;;;;8.10;1.40;;;15.50;99.90;;;;;;5051895;28;20119;-67
2023/08/08 06:37:14;;;;;;;8.43;1.20;;;15.70;99.90;;;;;;5053956;28;20446;-67
2023/08/08 06:39:41;;;;;;;6.35;1.63;;;15.70;99.90;;;;;;5053306;28;20044;-67
2023/08/08 06:42:07;;;;;;;4.22;1.30;;;15.80;99.90;;;;;;5052077;28;20439;-67
2023/08/08 06:44:40;;;;;;;6.72;1.40;;;15.90;99.90;;;;;;5051814;28;20051;-67
2023/08/08 06:47:05;;;;;;;6.05;1.25;;;15.90;99.90;;;;;;5053227;28;20051;-68
2023/08/08 06:49:43;;;;;;;6.30;1.40;;;16.10;99.90;;;;;;5052926;28;20108;-67
2023/08/08 06:52:09;;;;;;;6.68;1.50;;;16.30;99.90;;;;;;5051801;28;20052;-67
2023/08/08 06:54:38;;;;;;;8.13;1.52;;;16.50;99.90;;;;;;5051281;28;20508;-67
2023/08/08 06:57:07;;;;;;;8.13;1.48;;;16.50;99.90;;;;;;5051682;28;20053;-68
2023/08/08 06:59:33;;;;;;;8.32;1.60;;;16.50;99.90;;;;;;5052685;28;20124;-68
2023/08/08 07:01:59;;;;;;;3.97;1.40;;;16.50;99.90;;;;;;5053388;28;20049;-68
2023/08/08 07:04:25;;;;;;;4.53;1.02;;;16.60;99.90;;;;;;5052579;28;20087;-67
2023/08/08 07:06:50;;;;;;;5.68;1.40;;;16.50;99.90;;;;;;5053039;28;20105;-67
2023/08/08 07:09:19;;;;;;;5.75;1.60;;;16.60;99.90;;;;;;5053272;28;20473;-68
2023/08/08 07:11:47;;;;;;;3.88;1.23;;;16.60;99.90;;;;;;5052226;28;20116;-67
2023/08/08 07:14:13;;;;;;;5.07;1.50;;;16.50;99.90;;;;;;5050905;28;20537;-67
2023/08/08 07:16:41;;;;;;;5.63;1.33;;;16.50;99.90;;;;;;5052910;28;20037;-68
2023/08/08 07:19:07;;;;;;;6.78;1.35;;;16.70;99.90;;;;;;5051062;28;20413;-68
2023/08/08 07:21:33;;;;;;;5.13;1.38;;;16.80;99.90;;;;;;5052480;28;20128;-68
2023/08/08 07:23:59;;;;;;;6.78;1.23;;;16.90;99.90;;;;;;5050294;28;20174;-68
2023/08/08 07:26:24;;;;;;;8.05;1.30;;;17.00;99.90;;;;;;5051316;28;20092;-68
2023/08/08 07:28:50;;;;;;;6.80;1.67;;;17.10;99.90;;;;;;5051243;28;20041;-68
2023/08/08 07:31:16;;;;;;;9.55;1.50;;;17.10;99.90;;;;;;5051214;28;20053;-68
2023/08/08 07:33:44;;;;;;;6.97;1.40;;;17.20;99.90;;;;;;5051702;28;20448;-68
2023/08/08 07:36:10;;;;;;;8.20;1.45;;;17.20;99.90;;;;;;5052445;28;20041;-68
2023/08/08 07:38:36;;;;;;;5.97;1.60;;;17.30;99.90;;;;;;5050708;28;20408;-68
2023/08/08 07:41:02;;;;;;;7.22;1.33;;;17.30;99.90;;;;;;5051527;28;20060;-68
2023/08/08 07:43:30;;;;;;;5.03;1.13;;;17.40;99.90;;;;;;5052626;28;20040;-69
2023/08/08 07:45:56;;;;;;;7.72;1.10;;;17.40;99.90;;;;;;5051080;28;20079;-68
2023/08/08 07:48:22;;;;;;;9.90;1.40;;;17.20;99.90;;;;;;5052762;28;20045;-68
2023/08/08 07:50:48;;;;;;;7.18;1.30;;;17.30;99.90;;;;;;5052601;28;20124;-68
2023/08/08 07:53:13;;;;;;;10.27;1.48;;;17.30;99.90;;;;;;5053158;28;20041;-68
2023/08/08 07:55:39;;;;;;;6.60;1.50;;;17.30;99.90;;;;;;5052066;28;20048;-68
2023/08/08 07:58:05;;;;;;;5.32;1.13;;;17.50;99.90;;;;;;5052111;28;20128;-68
2023/08/08 08:00:31;;;;;;;7.25;1.50;;;17.60;99.90;;;;;;5051444;28;20057;-67
2023/08/08 08:02:56;;;;;;;4.88;1.40;;;17.80;99.90;;;;;;5050768;28;20533;-68
2023/08/08 08:05:22;;;;;;;6.50;1.35;;;17.90;99.90;;;;;;5055966;28;20051;-68
2023/08/08 08:07:51;;;;;;;4.85;1.17;;;18.10;99.90;;;;;;5057431;28;20475;-67
2023/08/08 08:10:17;;;;;;;6.45;1.40;;;18.40;99.90;;;;;;5057374;28;20400;-67
2023/08/08 08:12:46;;;;;;;5.40;1.38;;;18.40;99.90;;;;;;5058559;28;20041;-68
2023/08/08 08:15:12;;;;;;;4.40;1.15;;;18.60;99.90;;;;;;5037229;28;20049;-68
2023/08/08 08:17:38;;;;;;;6.40;1.27;;;18.80;99.90;;;;;;5038260;28;20405;-68
2023/08/08 08:20:08;;;;;;;5.13;2.00;;;18.90;99.90;;;;;;5038546;28;20520;-67
2023/08/08 08:22:34;;;;;;;6.07;1.05;;;18.50;99.90;;;;;;5048962;28;20147;-67
2023/08/08 08:25:00;;;;;;;7.63;1.45;;;18.10;99.90;;;;;;5058496;28;20072;-67
2023/08/08 08:27:25;;;;;;;4.80;1.10;;;17.70;99.90;;;;;;5057787;28;20061;-67
2023/08/08 08:29:51;;;;;;;7.50;1.85;;;17.60;99.90;;;;;;5039977;28;20045;-67
2023/08/08 08:32:17;;;;;;;5.60;1.20;;;18.20;99.90;;;;;;5040324;28;20052;-67
2023/08/08 08:34:44;;;;;;;6.10;1.23;;;19.10;99.90;;;;;;5040170;28;20053;-67
2023/08/08 08:37:09;;;;;;;4.35;1.20;;;20.20;99.90;;;;;;5058886;28;20080;-68
2023/08/08 08:39:35;;;;;;;5.75;1.23;;;21.10;99.90;;;;;;5039866;28;20133;-68
2023/08/08 08:42:03;;;;;;;6.30;1.17;;;21.80;99.90;;;;;;5058277;28;20438;-68
2023/08/08 08:44:31;;;;;;;6.07;1.10;;;22.10;99.90;;;;;;5058808;28;20130;-68
2023/08/08 08:47:02;;;;;;;3.42;0.90;;;22.10;99.90;;;;;;5040379;28;20055;-68
2023/08/08 08:49:31;;;;;;;5.47;0.93;;;22.10;99.90;;;;;;5040470;28;20049;-68
2023/08/08 08:52:00;;;;;;;4.00;1.10;;;21.90;99.90;;;;;;5040400;28;20055;-68
2023/08/08 08:54:29;;;;;;;4.38;1.20;;;21.90;99.90;;;;;;5057561;28;20477;-68
2023/08/08 08:56:57;;;;;;;4.18;1.33;;;21.80;99.90;;;;;;5039594;28;20102;-68
2023/08/08 08:59:23;;;;;;;4.97;1.20;;;21.70;99.90;;;;;;5058417;28;20041;-67
2023/08/08 09:01:50;;;;;;;4.90;1.35;;;21.00;99.90;;;;;;5058274;28;20059;-67
2023/08/08 09:04:19;;;;;;;6.57;1.23;;;20.90;99.90;;;;;;5040142;28;20102;-67
2023/08/08 09:06:46;;;;;;;6.13;1.15;;;20.50;99.90;;;;;;5058062;28;20124;-67
2023/08/08 09:09:13;;;;;;;6.15;1.25;;;20.20;99.90;;;;;;5039977;28;20052;-67
2023/08/08 09:11:40;;;;;;;5.63;1.10;;;19.80;99.90;;;;;;5039512;28;20041;-68
2023/08/08 09:14:19;;;;;;;4.82;1.15;;;19.30;99.90;;;;;;5040306;28;20060;-67
2023/08/08 09:16:48;;;;;;;6.25;1.10;;;19.60;99.90;;;;;;5054626;28;20123;-67
2023/08/08 09:19:15;;;;;;;6.28;1.38;;;19.60;99.90;;;;;;5054771;28;20106;-68
2023/08/08 09:21:41;;;;;;;5.00;1.45;;;19.70;99.90;;;;;;5054595;28;20041;-68
2023/08/08 09:24:07;;;;;;;6.05;1.33;;;19.90;99.90;;;;;;5036495;28;20064;-68
2023/08/08 09:26:34;;;;;;;5.38;1.27;;;19.60;99.90;;;;;;5039880;28;20048;-67
2023/08/08 09:29:02;;;;;;;7.47;1.35;;;19.40;99.90;;;;;;5053264;28;20091;-68
2023/08/08 09:31:33;;;;;;;6.07;1.60;;;19.70;99.90;;;;;;5054134;28;20044;-68
2023/08/08 09:34:01;;;;;;;5.72;1.40;;;20.30;99.90;;;;;;5053977;28;20445;-68
2023/08/08 09:36:27;;;;;;;5.75;1.20;;;20.60;99.90;;;;;;5052574;28;20053;-68
2023/08/08 09:38:54;;;;;;;5.25;1.30;;;20.50;99.90;;;;;;5053957;28;20068;-67
2023/08/08 09:41:24;;;;;;;6.55;1.40;;;19.80;99.90;;;;;;5055013;28;20101;-68
2023/08/08 09:43:53;;;;;;;5.75;1.23;;;20.00;99.90;;;;;;5054930;28;20045;-68
2023/08/08 09:46:20;;;;;;;7.20;1.30;;;20.80;99.90;;;;;;5053293;28;20037;-68
2023/08/08 09:48:46;;;;;;;6.10;1.40;;;21.60;99.90;;;;;;5054605;28;20037;-68
2023/08/08 09:51:13;;;;;;;4.35;1.20;;;22.20;99.90;;;;;;5055068;28;20056;-68
2023/08/08 09:53:40;;;;;;;4.03;1.05;;;21.90;99.90;;;;;;5053538;28;20091;-68
2023/08/08 09:56:13;;;;;;;6.63;1.30;;;22.10;99.90;;;;;;5052954;28;20045;-68
2023/08/08 09:58:41;;;;;;;4.53;1.10;;;22.90;99.90;;;;;;5053725;28;20056;-68
2023/08/08 10:01:08;;;;;;;7.95;1.38;;;23.30;98.30;;;;;;5054675;28;20037;-67
2023/08/08 10:03:36;;;;;;;6.28;1.30;;;22.80;98.30;;;;;;5052593;28;20501;-67
2023/08/08 10:06:02;;;;;;;7.00;1.60;;;22.50;98.80;;;;;;5052804;28;20060;-67
2023/08/08 10:08:30;;;;;;;6.72;1.35;;;22.50;99.90;;;;;;5052765;28;20126;-67
2023/08/08 10:10:56;;;;;;;8.57;1.33;;;22.50;98.00;;;;;;5053778;28;20183;-67
2023/08/08 10:13:24;;;;;;;3.17;1.27;;;22.90;98.20;;;;;;5053436;28;20534;-67
2023/08/08 10:15:50;;;;;;;4.32;1.20;;;23.10;97.90;;;;;;5053758;28;20118;-67
2023/08/08 10:18:17;;;;;;;8.27;1.40;;;23.30;97.30;;;;;;5053695;28;20134;-67
2023/08/08 10:20:45;;;;;;;5.13;1.25;;;23.40;97.30;;;;;;5053344;28;20052;-67
2023/08/08 10:23:11;;;;;;;4.57;1.40;;;23.50;96.60;;;;;;5053980;28;20072;-68
2023/08/08 10:25:37;;;;;;;7.43;1.30;;;23.50;96.50;;;;;;5052084;28;20452;-68
2023/08/08 10:28:04;;;;;;;5.28;1.42;;;22.90;97.00;;;;;;5052300;28;20092;-67
2023/08/08 10:30:30;;;;;;;7.57;1.10;;;22.10;96.80;;;;;;5053921;28;20045;-67
2023/08/08 10:32:57;;;;;;;3.92;1.00;;;21.80;97.40;;;;;;5035853;28;20138;-67
2023/08/08 10:35:24;;;;;;;5.30;1.38;;;21.90;98.10;;;;;;5035344;28;20045;-67
2023/08/08 10:37:54;;;;;;;4.32;1.02;;;21.80;98.60;;;;;;5052715;28;20122;-67
2023/08/08 10:40:20;;;;;;;3.60;1.10;;;22.30;98.50;;;;;;5035274;28;20098;-67
2023/08/08 10:42:47;;;;;;;5.72;1.35;;;22.80;97.90;;;;;;5052466;28;20084;-67
2023/08/08 10:45:16;;;;;;;5.25;1.00;;;23.10;97.10;;;;;;5036140;28;20400;-67
2023/08/08 10:47:43;;;;;;;5.65;1.10;;;23.30;96.40;;;;;;5052789;28;20120;-67
2023/08/08 10:50:22;;;;;;;6.22;1.55;;;23.30;95.80;;;;;;5052905;28;20041;-68
2023/08/08 10:52:56;;;;;;;7.00;1.50;;;23.50;96.30;;;;;;5034858;28;20614;-67
2023/08/08 10:55:36;;;;;;;3.60;1.15;;;23.50;95.70;;;;;;5034848;28;20103;-67
2023/08/08 10:58:09;;;;;;;7.10;1.00;;;23.20;94.90;;;;;;5016079;28;20132;-67
2023/08/08 11:00:41;;;;;;;5.75;1.10;;;23.50;95.40;;;;;;5033071;28;20049;-67
2023/08/08 11:03:08;;;;;;;4.80;1.05;;;23.70;95.00;;;;;;5045299;28;20045;-67
2023/08/08 11:05:36;;;;;;;5.07;1.63;;;23.50;94.90;;;;;;5035126;28;20400;-68
2023/08/08 11:08:04;;;;;;;5.45;1.20;;;23.60;95.60;;;;;;5035193;28;20068;-68
2023/08/08 11:10:35;;;;;;;4.30;1.15;;;23.80;95.90;;;;;;5052710;28;20091;-68
2023/08/08 11:13:03;;;;;;;5.00;1.25;;;23.70;95.70;;;;;;5034777;28;20095;-67
2023/08/08 11:15:29;;;;;;;4.25;1.10;;;23.50;95.90;;;;;;5034910;28;20136;-68
2023/08/08 11:17:56;;;;;;;4.63;1.20;;;23.40;95.60;;;;;;5033557;28;20045;-67
2023/08/08 11:20:22;;;;;;;5.40;1.00;;;23.30;95.40;;;;;;5035238;28;20124;-68
2023/08/08 11:22:53;;;;;;;4.53;1.30;;;23.20;95.60;;;;;;5034620;28;20378;-67
2023/08/08 11:25:19;;;;;;;5.85;1.70;;;22.90;96.00;;;;;;5034149;28;20477;-67
2023/08/08 11:27:52;;;;;;;3.35;1.13;;;22.10;96.50;;;;;;5051430;28;20393;-67
2023/08/08 11:30:18;;;;;;;4.80;1.25;;;21.60;97.40;;;;;;5034245;28;20459;-67
2023/08/08 11:32:47;;;;;;;7.38;1.30;;;21.20;98.80;;;;;;5052590;28;20087;-67
2023/08/08 11:35:22;;;;;;;4.88;1.30;;;20.70;99.30;;;;;;5034332;28;20049;-67
2023/08/08 11:37:51;;;;;;;5.28;1.40;;;20.50;99.90;;;;;;5051361;28;20040;-67
2023/08/08 11:40:17;;;;;;;5.93;1.17;;;20.60;99.90;;;;;;5051237;28;20033;-67
2023/08/08 11:42:45;;;;;;;6.22;1.10;;;20.90;99.90;;;;;;5033389;28;20048;-67
2023/08/08 11:45:12;;;;;;;5.38;1.40;;;21.00;99.80;;;;;;5052435;28;20068;-68
2023/08/08 11:47:41;;;;;;;5.55;1.17;;;21.00;99.10;;;;;;5052421;28;20048;-67
2023/08/08 11:50:12;;;;;;;5.07;1.27;;;21.40;99.40;;;;;;5034549;28;20493;-68
2023/08/08 11:52:45;;;;;;;3.83;0.98;;;21.90;98.80;;;;;;5033322;28;20087;-67
2023/08/08 11:55:12;;;;;;;6.30;1.38;;;22.30;98.20;;;;;;5051949;28;20056;-68
2023/08/08 11:57:39;;;;;;;8.23;1.30;;;21.80;97.30;;;;;;5051935;28;20041;-67
2023/08/08 12:00:12;;;;;;;6.60;1.20;;;21.40;97.80;;;;;;5052020;28;20462;-67
2023/08/08 12:02:39;;;;;;;4.95;1.27;;;21.20;98.20;;;;;;5051646;28;20053;-67
2023/08/08 12:05:11;;;;;;;4.70;1.30;;;21.30;98.20;;;;;;5052339;28;20041;-67
2023/08/08 12:07:37;;;;;;;6.32;1.40;;;21.10;97.60;;;;;;5034502;28;20045;-67
2023/08/08 12:10:20;;;;;;;5.10;1.42;;;20.50;98.90;;;;;;5033804;28;20052;-67
2023/08/08 12:12:49;;;;;;;4.75;1.33;;;20.30;99.60;;;;;;5033894;28;20073;-67
2023/08/08 12:15:15;;;;;;;7.38;1.40;;;20.40;99.90;;;;;;5052435;28;20056;-68
2023/08/08 12:17:43;;;;;;;5.18;1.27;;;20.40;99.50;;;;;;5033293;28;20041;-67
2023/08/08 12:20:11;;;;;;;5.60;1.13;;;20.40;99.90;;;;;;5033542;28;20049;-68
2023/08/08 12:22:37;;;;;;;3.65;1.20;;;20.50;99.30;;;;;;5052134;28;20072;-68
2023/08/08 12:25:04;;;;;;;7.28;1.27;;;20.60;99.90;;;;;;5033801;28;20134;-68
2023/08/08 12:27:30;;;;;;;5.18;1.33;;;21.00;99.40;;;;;;5044157;28;20060;-68
2023/08/08 12:29:56;;;;;;;5.57;1.40;;;20.80;99.20;;;;;;5050145;28;20045;-67
2023/08/08 12:32:26;;;;;;;4.13;1.30;;;20.80;98.90;;;;;;5052109;28;20382;-67
2023/08/08 12:34:52;;;;;;;6.72;1.40;;;20.40;99.20;;;;;;5049997;28;20107;-67
2023/08/08 12:37:18;;;;;;;6.28;1.20;;;20.40;99.30;;;;;;5050116;28;20500;-67
2023/08/08 12:39:44;;;;;;;8.65;1.55;;;20.40;99.90;;;;;;5050756;28;20124;-67
2023/08/08 12:42:10;;;;;;;6.78;1.15;;;20.40;99.40;;;;;;5051551;28;20073;-67
2023/08/08 12:44:36;;;;;;;4.95;1.13;;;20.60;99.90;;;;;;5051604;28;20068;-67
2023/08/08 12:47:01;;;;;;;5.05;1.40;;;20.70;99.50;;;;;;5051847;28;20045;-67